Detalii statie SADELLI PRODCOM [00001D03]

Toti senzorii

Date Temperatura solului [C]Precipitatii [mm]Voltaj baterie [mV]Leaf Wetness [Min]HC Air temperature [C]HC Relative humidity [%]Punctul de roua [C]
medieminmaxsumaultimatimpmedieminmaxmediemediemin
2017-12-10 22:00:00 1.1 1 1.3 0 6826 -0.33 -0.62 0.11 0 0 0
2017-12-10 23:00:00 1 1 1.2 0 6816 0.5 0.16 0.83 0 0 0
2017-12-11 00:00:00 1 1 1.1 0 6816 1.24 0.82 1.5 0 0 0
2017-12-11 01:00:00 1 0.8 1.1 0 6806 1.8 1.46 2.3 0 0 0
2017-12-11 02:00:00 0.9 0.9 1.1 0 6806 2.18 2.07 2.34 0 0 0
2017-12-11 03:00:00 1 1 1.1 0 6796 2.06 1.66 2.58 0 0 0
2017-12-11 04:00:00 1 0.8 1.2 0 6786 1.83 1.59 2.26 0 0 0
2017-12-11 05:00:00 1.2 1.2 1.4 0.2 6786 2.12 1.96 2.36 0 0 0
2017-12-11 06:00:00 1.5 1.4 1.7 0.4 6786 2.52 2.12 2.9 0 0 0
2017-12-11 07:00:00 1.7 1.7 1.9 0.8 6776 3.04 2.87 3.33 0 0 0
2017-12-11 08:00:00 2 1.9 2.2 0 6776 3.89 3.47 4.4 0 0 0
2017-12-11 09:00:00 2.2 2 2.5 0.2 6766 4.69 4.33 5.28 0 0 0
2017-12-11 10:00:00 2.7 2.5 2.9 0 6786 5.66 5.16 6.35 0 0 0
2017-12-11 11:00:00 3.1 2.9 3.4 0 6854 6.9 6.2 7.55 0 0 0
2017-12-11 12:00:00 3.7 3.4 4 0 6992 8.39 7.84 8.86 0 0 0
2017-12-11 13:00:00 4.4 4.1 4.9 0 7030 9.16 8.86 9.41 0 0 0
2017-12-11 14:00:00 4.9 4.7 5.2 0 6982 9.66 9.47 9.87 0 0 0
2017-12-11 15:00:00 5.1 5 5.4 0 6904 10 9.87 10.19 0 0 0
2017-12-11 16:00:00 5.2 5 5.4 0 6844 10.2 10.05 10.41 0 0 0
2017-12-11 17:00:00 5.1 5 5.3 0 6816 10.3 10.14 10.6 0 0 0
2017-12-11 18:00:00 5.1 5 5.3 0 6806 10.56 10.42 10.69 0 0 0
2017-12-11 19:00:00 5 4.8 5.3 0 6786 10.18 9.69 10.56 0 0 0
2017-12-11 20:00:00 4.8 4.7 5.1 0 6776 9.82 9.38 10.32 0 0 0
2017-12-11 21:00:00 4.8 4.7 5.1 0 6766 10.26 10.07 10.44 0 0 0
2017-12-11 22:00:00 4.8 4.6 5 0 6766 10.31 9.94 10.6 0 0 0
2017-12-11 23:00:00 4.9 4.8 5.1 0 6766 10.76 10.56 11.06 0 0 0
2017-12-12 00:00:00 5 4.8 5.3 0 6748 10.8 10.61 10.99 0 0 0
2017-12-12 01:00:00 5.1 4.9 5.3 0 6748 10.66 10.28 11.02 0 0 0
2017-12-12 02:00:00 5.1 5 5.3 0 6748 11.02 10.71 11.25 0 0 0
2017-12-12 03:00:00 5.1 5 5.3 0 6738 11.29 11.02 11.52 0 0 0
2017-12-12 04:00:00 5.2 5 5.4 0 6748 11.45 11.25 11.66 0 0 0
2017-12-12 05:00:00 5.3 5.1 5.5 0 6738 11.46 11.14 11.78 0 0 0
2017-12-12 06:00:00 5.4 5.4 5.6 0 6738 11.83 11.63 12.3 0 0 0
2017-12-12 07:00:00 5.6 5.3 5.7 0 6738 12.14 11.95 12.46 0 0 0
2017-12-12 08:00:00 5.7 5.4 5.9 0 6728 12.34 11.87 12.78 0 0 0
2017-12-12 09:00:00 5.9 5.9 6.1 0 6738 12.54 12.18 12.85 0 0 0
2017-12-12 10:00:00 6.2 6.1 6.4 0 6816 12.95 12.73 13.35 0 0 0
2017-12-12 11:00:00 6.6 6.3 6.9 0 6914 13.95 13.49 14.54 0 0 0
2017-12-12 12:00:00 7.3 7 7.7 0 7020 15.15 14.6 15.37 0 0 0
2017-12-12 13:00:00 7.9 7.7 8.1 0 7050 15.52 15.3 15.68 0 0 0
2017-12-12 14:00:00 8.3 8.3 8.6 0 7010 15.49 15.31 15.75 0 0 0
2017-12-12 15:00:00 8.4 8.4 8.6 0 6982 15.63 15.33 15.92 0 0 0
2017-12-12 16:00:00 8.5 8.4 8.6 0 6874 15.41 15.09 15.59 0 0 0
2017-12-12 17:00:00 8.4 8.4 8.6 0 6834 15.06 14.8 15.41 0 0 0
2017-12-12 18:00:00 8.4 8.3 8.6 0 6826 14.98 14.72 15.26 0 0 0
2017-12-12 19:00:00 8.3 8.3 8.5 0 6806 14.48 12.72 15.08 0 0 0
2017-12-12 20:00:00 8.2 8.1 8.3 0 6806 12.2 11.85 12.65 0 0 0
2017-12-12 21:00:00 8 8 8.2 0 6796 11.57 10.96 11.97 0 0 0